Time;durP1;ratioP1;P1;durP2;ratioP2;P2;SDS_P1;SDS_P2;PMS_P1;PMS_P2;Temp;Humidity;BMP_temperature;BMP_pressure;BME280_temperature;BME280_humidity;BME280_pressure;Samples;Min_cycle;Max_cycle;Signal;HPM_P1;HPM_P2
2022/11/23 00:01:55;;;;;;;;;2.25;2.00;;;;;10.07;75.22;99609.28;4959186;28;45496;-68
2022/11/23 00:04:23;;;;;;;;;3.25;1.50;;;;;10.01;75.00;99601.75;4976876;28;45352;-67
2022/11/23 00:06:49;;;;;;;;;5.75;2.75;;;;;9.91;75.37;99600.75;4959514;28;45504;-68
2022/11/23 00:09:14;;;;;;;;;2.50;1.00;;;;;9.70;75.33;99577.41;4976552;28;45464;-68
2022/11/23 00:11:39;;;;;;;;;1.50;1.50;;;;;9.85;75.58;99602.06;4976865;28;45430;-68
2022/11/23 00:14:05;;;;;;;;;1.00;1.00;;;;;9.83;75.66;99592.50;4977062;28;45751;-68
2022/11/23 00:16:30;;;;;;;;;3.75;2.75;;;;;9.74;76.50;99584.22;4976786;28;45659;-67
2022/11/23 00:19:00;;;;;;;;;2.00;2.00;;;;;9.82;76.66;99612.09;4976394;28;45459;-67
2022/11/23 00:21:28;;;;;;;;;3.25;1.75;;;;;9.77;76.62;99613.28;4976330;28;45483;-67
2022/11/23 00:23:53;;;;;;;;;2.75;1.75;;;;;9.64;77.02;99604.50;4976558;28;45415;-67
2022/11/23 00:26:19;;;;;;;;;1.25;1.25;;;;;9.63;77.35;99610.78;4976388;28;45369;-67
2022/11/23 00:28:45;;;;;;;;;2.25;1.50;;;;;9.62;77.68;99614.41;4988064;28;47435;-67
2022/11/23 00:31:13;;;;;;;;;1.50;1.50;;;;;9.59;78.16;99614.63;4978072;28;45716;-67
2022/11/23 00:33:38;;;;;;;;;2.50;1.50;;;;;9.58;78.02;99608.47;4978809;28;45470;-67
2022/11/23 00:36:10;;;;;;;;;3.00;2.00;;;;;9.62;78.24;99614.41;4995667;28;45462;-67
2022/11/23 00:38:36;;;;;;;;;4.00;1.25;;;;;9.39;78.56;99581.47;4995801;28;45691;-67
2022/11/23 00:41:05;;;;;;;;;3.75;2.00;;;;;9.23;78.60;99550.69;4995754;28;45501;-67
2022/11/23 00:43:31;;;;;;;;;5.75;2.00;;;;;9.53;78.60;99604.47;4995895;28;45343;-67
2022/11/23 00:46:12;;;;;;;;;5.00;3.25;;;;;9.57;79.17;99606.75;4995780;28;45402;-67
2022/11/23 00:48:37;;;;;;;;;2.25;1.00;;;;;9.48;78.91;99590.63;4995861;28;45458;-67
2022/11/23 00:51:05;;;;;;;;;3.75;1.75;;;;;9.58;79.20;99613.81;4995325;28;45526;-67
2022/11/23 00:53:31;;;;;;;;;1.75;1.50;;;;;9.55;79.46;99607.84;4995629;28;45406;-67
2022/11/23 00:55:56;;;;;;;;;2.25;1.25;;;;;9.54;79.53;99601.69;4978125;28;45520;-67
2022/11/23 00:58:22;;;;;;;;;3.75;3.00;;;;;9.53;79.76;99599.13;4995014;28;46940;-67
2022/11/23 01:00:48;;;;;;;;;5.00;2.00;;;;;9.48;79.70;99579.97;4994049;28;45426;-67
2022/11/23 01:03:14;;;;;;;;;4.00;2.00;;;;;9.35;79.75;99558.72;4994947;28;45996;-67
2022/11/23 01:05:40;;;;;;;;;3.00;3.00;;;;;9.52;79.92;99592.09;4995031;28;45384;-67
2022/11/23 01:08:05;;;;;;;;;4.00;2.00;;;;;9.50;79.89;99600.19;4995396;28;46483;-67
2022/11/23 01:10:31;;;;;;;;;4.00;2.75;;;;;9.41;80.03;99587.56;4995430;28;45459;-67
2022/11/23 01:12:57;;;;;;;;;3.75;2.50;;;;;9.34;80.10;99589.81;4995642;28;45468;-67
2022/11/23 01:15:23;;;;;;;;;5.75;2.25;;;;;9.32;80.74;99588.22;4994989;28;45566;-67
2022/11/23 01:17:48;;;;;;;;;2.75;2.75;;;;;9.06;81.16;99541.25;4994793;28;46010;-68
2022/11/23 01:20:14;;;;;;;;;6.25;1.25;;;;;9.23;81.28;99565.78;4994832;28;45391;-68
2022/11/23 01:22:39;;;;;;;;;1.75;1.75;;;;;9.36;81.32;99582.56;4995379;28;45347;-68
2022/11/23 01:25:06;;;;;;;;;1.75;1.00;;;;;9.34;81.06;99575.63;4994767;28;45420;-68
2022/11/23 01:27:31;;;;;;;;;3.00;2.00;;;;;9.28;81.09;99563.63;4994861;28;46376;-68
2022/11/23 01:29:56;;;;;;;;;2.50;2.50;;;;;8.83;81.42;99483.56;4994929;28;45443;-67
2022/11/23 01:32:22;;;;;;;;;2.00;2.00;;;;;8.99;81.49;99508.06;4994972;28;45454;-68
2022/11/23 01:34:47;;;;;;;;;1.25;1.00;;;;;9.25;81.56;99550.56;4977100;28;45610;-67
2022/11/23 01:37:12;;;;;;;;;3.25;2.75;;;;;9.22;82.05;99550.78;4994737;28;45456;-67
2022/11/23 01:39:38;;;;;;;;;3.00;3.00;;;;;9.18;82.08;99531.53;4977295;28;45705;-67
2022/11/23 01:42:06;;;;;;;;;3.25;2.00;;;;;8.97;81.84;99501.16;4977226;28;45883;-67
2022/11/23 01:44:35;;;;;;;;;2.00;1.00;;;;;9.18;81.86;99530.69;4994968;28;45606;-67
2022/11/23 01:47:06;;;;;;;;;3.75;2.50;;;;;8.73;81.61;99454.97;4994901;28;47556;-68
2022/11/23 01:49:44;;;;;;;;;2.75;2.75;;;;;9.18;81.60;99528.88;4994442;28;45464;-68
2022/11/23 01:52:15;;;;;;;;;2.25;2.00;;;;;9.06;81.83;99508.47;4976820;28;45344;-68
2022/11/23 01:54:47;;;;;;;;;2.00;1.25;;;;;9.24;81.84;99538.22;4976755;28;45392;-68
2022/11/23 01:57:20;;;;;;;;;2.00;2.00;;;;;9.08;82.41;99514.53;4994432;28;46046;-68
2022/11/23 01:59:47;;;;;;;;;2.00;2.00;;;;;8.99;82.45;99502.75;4994364;28;45461;-68
2022/11/23 02:02:13;;;;;;;;;2.50;2.50;;;;;9.01;82.52;99498.16;4976821;28;45404;-68
2022/11/23 02:04:42;;;;;;;;;1.25;1.25;;;;;9.16;82.69;99529.94;4994538;28;45369;-68
2022/11/23 02:07:08;;;;;;;;;2.50;2.50;;;;;9.16;83.05;99537.91;4994106;28;45693;-68
2022/11/23 02:09:34;;;;;;;;;3.75;2.75;;;;;9.11;82.85;99529.41;4994403;28;45658;-68
2022/11/23 02:12:00;;;;;;;;;5.25;2.00;;;;;8.79;83.59;99496.22;4994375;28;45402;-68
2022/11/23 02:14:26;;;;;;;;;5.25;3.00;;;;;8.86;84.21;99504.59;4994505;28;45487;-68
2022/11/23 02:16:52;;;;;;;;;1.25;1.25;;;;;8.94;84.06;99509.38;4994174;28;46120;-68
2022/11/23 02:19:46;;;;;;;;;4.75;3.50;;;;;8.86;83.67;99502.78;4994187;28;45308;-68
2022/11/23 02:22:28;;;;;;;;;3.00;2.00;;;;;9.07;84.04;99534.13;4994481;28;45417;-67
2022/11/23 02:24:54;;;;;;;;;3.25;2.00;;;;;8.94;84.41;99504.91;4994228;28;45550;-68
2022/11/23 02:27:21;;;;;;;;;7.50;3.75;;;;;9.02;84.24;99525.63;4994008;28;45654;-67
2022/11/23 02:29:47;;;;;;;;;6.25;4.75;;;;;8.02;84.54;99355.50;4993955;28;45364;-68
2022/11/23 02:32:21;;;;;;;;;3.00;3.00;;;;;9.05;84.32;99534.22;4993858;28;45419;-68
2022/11/23 02:34:47;;;;;;;;;3.00;3.00;;;;;8.67;84.87;99479.31;4994346;28;45557;-68
2022/11/23 02:37:13;;;;;;;;;2.25;2.25;;;;;8.87;85.26;99506.31;4976156;28;48677;-67
2022/11/23 02:39:47;;;;;;;;;7.75;6.75;;;;;8.84;85.40;99502.06;4993886;28;45430;-68
2022/11/23 02:42:12;;;;;;;;;2.00;2.00;;;;;8.77;85.72;99490.13;4994144;28;45403;-68
2022/11/23 02:44:48;;;;;;;;;10.00;3.75;;;;;8.83;85.96;99499.50;4993851;28;45382;-68
2022/11/23 02:47:14;;;;;;;;;4.00;2.25;;;;;8.98;86.09;99516.16;4993763;28;46319;-68
2022/11/23 02:49:41;;;;;;;;;3.00;3.00;;;;;9.03;86.13;99514.88;4993718;28;45378;-68
2022/11/23 02:52:06;;;;;;;;;3.00;3.00;;;;;8.96;86.23;99494.13;4993986;28;45508;-68
2022/11/23 02:54:32;;;;;;;;;4.50;4.50;;;;;8.89;86.05;99486.63;4993990;28;45579;-67
2022/11/23 02:56:57;;;;;;;;;5.25;5.00;;;;;8.77;86.51;99460.88;4993577;28;46437;-68
2022/11/23 02:59:23;;;;;;;;;4.50;3.25;;;;;8.86;86.14;99472.69;4993833;28;45763;-68
2022/11/23 03:01:48;;;;;;;;;4.75;3.75;;;;;8.97;86.49;99480.72;4993094;28;45425;-68
2022/11/23 03:04:14;;;;;;;;;7.50;5.00;;;;;8.91;86.24;99460.75;4993129;28;45343;-68
2022/11/23 03:06:39;;;;;;;;;7.00;5.00;;;;;8.91;85.85;99457.25;4993479;28;46318;-68
2022/11/23 03:09:05;;;;;;;;;4.25;4.25;;;;;8.92;87.12;99464.25;4993555;28;45470;-68
2022/11/23 03:11:31;;;;;;;;;6.50;4.25;;;;;8.94;87.07;99475.63;4993862;28;45404;-69
2022/11/23 03:13:56;;;;;;;;;4.25;2.75;;;;;9.07;87.22;99503.03;4993856;28;45438;-69
2022/11/23 03:16:22;;;;;;;;;6.00;3.75;;;;;9.00;87.97;99485.84;4993115;28;45573;-69
2022/11/23 03:18:47;;;;;;;;;6.50;3.00;;;;;9.01;88.19;99486.69;4993656;28;45401;-69
2022/11/23 03:21:12;;;;;;;;;3.00;3.00;;;;;8.84;87.55;99427.59;4993466;28;45655;-69
2022/11/23 03:23:38;;;;;;;;;6.00;4.00;;;;;9.14;87.23;99476.84;4995731;28;45535;-69
2022/11/23 03:26:04;;;;;;;;;4.25;2.00;;;;;9.07;86.96;99462.31;4979258;28;47626;-69
2022/11/23 03:28:29;;;;;;;;;8.50;4.75;;;;;8.97;87.13;99434.66;4996636;28;45319;-69
2022/11/23 03:30:55;;;;;;;;;5.50;4.25;;;;;9.12;87.21;99464.63;4996894;28;45349;-69
2022/11/23 03:33:21;;;;;;;;;5.75;4.00;;;;;9.05;87.46;99450.91;4979463;28;45370;-70
2022/11/23 03:35:47;;;;;;;;;2.00;2.00;;;;;8.87;87.84;99427.34;4962575;28;46067;-69
2022/11/23 03:38:12;;;;;;;;;3.25;3.25;;;;;9.05;88.59;99456.22;4996630;28;45420;-69
2022/11/23 03:40:38;;;;;;;;;5.00;3.00;;;;;9.06;88.92;99461.44;4997088;28;45396;-69
2022/11/23 03:43:04;;;;;;;;;7.25;3.50;;;;;9.01;88.20;99436.97;4996679;28;45395;-68
2022/11/23 03:45:29;;;;;;;;;3.00;2.00;;;;;9.13;88.87;99445.03;4978528;28;45525;-69
2022/11/23 03:47:54;;;;;;;;;9.00;5.25;;;;;9.15;88.75;99440.44;4996901;28;45435;-68
2022/11/23 03:50:20;;;;;;;;;2.75;2.75;;;;;9.07;88.67;99433.03;4996965;28;45608;-68
2022/11/23 03:52:47;;;;;;;;;4.50;3.00;;;;;9.09;89.50;99437.25;4996630;28;45558;-68
2022/11/23 03:55:13;;;;;;;;;3.00;3.00;;;;;9.18;89.03;99450.88;4996561;28;46681;-69
2022/11/23 03:57:38;;;;;;;;;5.50;4.00;;;;;9.06;89.73;99432.19;4996193;28;45736;-71
2022/11/23 04:00:04;;;;;;;;;6.00;3.25;;;;;9.18;89.49;99433.09;4996319;28;45750;-69
2022/11/23 04:02:29;;;;;;;;;4.00;4.00;;;;;9.05;89.28;99403.88;4996499;28;45640;-70
2022/11/23 04:04:55;;;;;;;;;4.00;3.00;;;;;9.30;89.16;99441.97;4995881;28;47577;-70
2022/11/23 04:07:20;;;;;;;;;8.50;3.00;;;;;9.31;90.00;99443.66;4996115;28;45331;-69
2022/11/23 04:09:45;;;;;;;;;4.50;4.50;;;;;9.34;89.65;99439.91;4996275;28;45452;-68
2022/11/23 04:12:11;;;;;;;;;3.50;3.50;;;;;9.13;90.19;99400.66;4972833;28;45699;-68
2022/11/23 04:14:36;;;;;;;;;5.00;5.00;;;;;9.32;90.35;99431.19;4995389;28;47320;-69
2022/11/23 04:17:02;;;;;;;;;3.50;3.00;;;;;9.37;90.79;99445.84;4995296;28;45495;-69
2022/11/23 04:19:28;;;;;;;;;7.00;4.25;;;;;9.38;90.88;99438.72;4996095;28;45533;-69
2022/11/23 04:21:53;;;;;;;;;6.75;6.75;;;;;9.39;91.03;99438.63;4994710;28;45535;-69
2022/11/23 04:24:19;;;;;;;;;9.00;5.50;;;;;9.37;90.97;99429.88;4977848;28;48029;-69
2022/11/23 04:26:44;;;;;;;;;10.00;5.50;;;;;9.42;91.43;99442.84;4996369;28;45702;-70
2022/11/23 04:29:10;;;;;;;;;2.50;2.50;;;;;9.18;91.26;99408.31;4995599;28;45537;-69
2022/11/23 04:31:35;;;;;;;;;7.25;4.00;;;;;9.28;91.93;99419.09;4978296;28;45432;-69
2022/11/23 04:34:00;;;;;;;;;7.50;4.25;;;;;9.31;91.94;99424.19;4995410;28;46968;-69
2022/11/23 04:36:26;;;;;;;;;4.50;2.75;;;;;9.24;92.42;99408.69;4995660;28;45426;-69
2022/11/23 04:38:52;;;;;;;;;6.75;3.50;;;;;9.32;91.77;99410.75;4995718;28;45481;-69
2022/11/23 04:41:17;;;;;;;;;3.75;3.75;;;;;9.17;93.05;99396.78;4996018;28;45803;-70
2022/11/23 04:43:42;;;;;;;;;6.50;3.25;;;;;9.09;93.51;99386.72;4995449;28;45942;-69
2022/11/23 04:46:10;;;;;;;;;4.00;4.00;;;;;9.34;93.00;99418.63;4995716;28;45391;-69
2022/11/23 04:48:35;;;;;;;;;5.25;4.00;;;;;8.99;92.76;99356.47;4996021;28;45563;-70
2022/11/23 04:51:01;;;;;;;;;4.50;4.50;;;;;9.33;92.17;99406.28;4977994;28;45554;-69
2022/11/23 04:53:26;;;;;;;;;3.25;3.00;;;;;9.30;93.22;99399.38;4995574;28;46508;-69
2022/11/23 04:55:51;;;;;;;;;6.00;3.00;;;;;8.95;92.71;99346.16;4995389;28;45460;-69
2022/11/23 04:58:17;;;;;;;;;4.00;3.50;;;;;9.29;93.11;99400.34;4995478;28;45301;-69
2022/11/23 05:00:42;;;;;;;;;5.00;5.00;;;;;9.29;93.33;99395.03;4993557;28;45657;-69
2022/11/23 05:03:07;;;;;;;;;2.75;2.75;;;;;9.27;93.30;99375.66;4983359;28;46228;-69
2022/11/23 05:05:33;;;;;;;;;4.50;4.00;;;;;9.22;93.46;99367.19;4975448;28;45378;-69
2022/11/23 05:07:58;;;;;;;;;3.25;3.00;;;;;9.09;92.93;99357.44;4975807;28;45427;-69
2022/11/23 05:10:24;;;;;;;;;3.00;3.00;;;;;9.28;93.47;99384.50;4975265;28;45400;-70
2022/11/23 05:12:49;;;;;;;;;4.75;3.25;;;;;9.24;94.06;99392.72;4986826;28;45461;-69
2022/11/23 05:15:15;;;;;;;;;4.75;3.50;;;;;9.23;94.23;99396.34;4980636;28;45491;-70
2022/11/23 05:17:40;;;;;;;;;4.00;3.00;;;;;8.81;94.05;99323.25;4995270;28;45379;-69
2022/11/23 05:20:06;;;;;;;;;3.00;3.00;;;;;9.12;93.92;99366.19;4995269;28;45420;-70
2022/11/23 05:22:32;;;;;;;;;8.25;5.25;;;;;9.23;94.06;99390.16;4977392;28;46477;-70
2022/11/23 05:24:58;;;;;;;;;4.00;3.00;;;;;9.21;93.86;99389.44;4994821;28;45332;-69
2022/11/23 05:27:23;;;;;;;;;2.25;2.00;;;;;9.27;93.62;99394.28;4995198;28;45560;-70
2022/11/23 05:29:49;;;;;;;;;3.00;3.00;;;;;8.66;94.09;99299.50;4994917;28;45460;-69
2022/11/23 05:32:14;;;;;;;;;8.75;7.75;;;;;9.10;93.37;99368.97;4977429;28;46163;-69
2022/11/23 05:34:40;;;;;;;;;4.25;3.25;;;;;9.03;92.77;99352.59;4994023;28;45525;-70
2022/11/23 05:37:05;;;;;;;;;10.50;5.25;;;;;9.38;92.43;99404.09;4995082;28;45375;-70
2022/11/23 05:39:30;;;;;;;;;3.00;3.00;;;;;9.36;92.53;99398.06;4994715;28;45562;-70
2022/11/23 05:41:56;;;;;;;;;5.75;3.50;;;;;9.41;92.99;99409.22;4994940;28;46283;-70
2022/11/23 05:44:21;;;;;;;;;7.00;4.00;;;;;9.32;93.72;99405.44;4994617;28;45501;-70
2022/11/23 05:46:46;;;;;;;;;3.25;3.25;;;;;9.30;93.43;99395.88;4994618;28;45434;-70
2022/11/23 05:49:12;;;;;;;;;2.50;2.50;;;;;8.94;93.72;99342.66;4994757;28;45754;-70
2022/11/23 05:51:37;;;;;;;;;6.25;5.00;;;;;9.29;93.21;99389.69;4977079;28;45569;-69
2022/11/23 05:54:03;;;;;;;;;4.25;3.75;;;;;9.22;93.18;99373.34;4994527;28;45539;-69
2022/11/23 05:56:28;;;;;;;;;6.00;4.75;;;;;9.22;93.24;99367.19;4994675;28;45932;-69
2022/11/23 05:58:55;;;;;;;;;4.75;3.25;;;;;9.20;93.65;99371.75;4976989;28;45510;-69
2022/11/23 06:01:21;;;;;;;;;4.00;4.00;;;;;9.37;94.10;99389.13;4994714;28;45386;-69
2022/11/23 06:03:49;;;;;;;;;6.00;3.50;;;;;9.41;93.87;99382.59;4960499;28;45455;-70
2022/11/23 06:06:14;;;;;;;;;3.50;3.50;;;;;9.46;93.54;99382.25;4994239;28;45375;-69
2022/11/23 06:08:39;;;;;;;;;6.50;4.00;;;;;9.01;93.20;99301.31;4994449;28;45304;-69
2022/11/23 06:11:05;;;;;;;;;5.25;3.25;;;;;9.55;93.33;99377.06;4994522;28;45349;-68
2022/11/23 06:13:30;;;;;;;;;4.75;4.75;;;;;9.58;93.12;99376.84;4994478;28;45323;-69
2022/11/23 06:15:56;;;;;;;;;4.00;4.00;;;;;9.46;92.88;99344.97;4994352;28;45353;-69
2022/11/23 06:18:21;;;;;;;;;8.00;5.50;;;;;9.65;92.53;99379.00;4994266;28;45368;-68
2022/11/23 06:20:46;;;;;;;;;5.25;3.00;;;;;9.65;92.55;99371.03;4994475;28;45491;-68
2022/11/23 06:23:12;;;;;;;;;3.25;3.25;;;;;9.40;92.55;99333.00;4994115;28;45422;-68
2022/11/23 06:25:38;;;;;;;;;5.50;5.25;;;;;9.40;93.06;99339.16;4976700;28;45539;-70
2022/11/23 06:28:04;;;;;;;;;6.50;6.50;;;;;9.67;93.64;99375.28;4994231;28;45415;-70
2022/11/23 06:30:29;;;;;;;;;4.00;4.00;;;;;9.62;93.54;99368.59;4992080;28;45529;-70
2022/11/23 06:32:56;;;;;;;;;4.25;3.75;;;;;9.64;93.87;99370.19;4972267;28;45345;-68
2022/11/23 06:35:21;;;;;;;;;5.50;5.25;;;;;9.69;93.25;99361.84;4994601;28;45323;-68
2022/11/23 06:37:48;;;;;;;;;3.25;3.25;;;;;9.65;94.13;99353.25;4994166;28;45396;-68
2022/11/23 06:40:13;;;;;;;;;8.25;8.25;;;;;9.68;94.07;99341.53;4994387;28;46669;-68
2022/11/23 06:42:39;;;;;;;;;7.75;6.75;;;;;9.67;94.36;99342.47;4987533;28;45395;-67
2022/11/23 06:45:05;;;;;;;;;8.50;8.50;;;;;9.63;94.79;99344.53;4975021;28;46695;-67
2022/11/23 06:47:30;;;;;;;;;8.00;8.00;;;;;9.58;94.72;99334.25;4961915;28;45348;-67
2022/11/23 06:49:55;;;;;;;;;12.50;12.00;;;;;9.42;95.25;99299.09;4974091;28;45794;-66
2022/11/23 06:52:21;;;;;;;;;6.75;5.00;;;;;9.56;95.31;99330.00;4976526;28;45390;-67
2022/11/23 06:54:46;;;;;;;;;10.50;8.75;;;;;9.51;95.55;99321.53;4985312;28;45447;-66
2022/11/23 06:57:11;;;;;;;;;11.00;8.50;;;;;9.30;95.68;99294.75;4994016;28;45390;-67
2022/11/23 06:59:37;;;;;;;;;11.50;10.00;;;;;9.34;95.53;99299.72;4996901;28;46344;-67
2022/11/23 07:02:02;;;;;;;;;9.25;7.50;;;;;9.52;95.76;99317.91;4996588;28;45419;-67
2022/11/23 07:04:28;;;;;;;;;7.50;5.25;;;;;9.55;96.00;99331.78;4987360;28;45642;-67
2022/11/23 07:06:53;;;;;;;;;9.00;9.00;;;;;9.57;95.39;99319.22;4959596;28;45363;-68
2022/11/23 07:09:18;;;;;;;;;14.00;8.25;;;;;9.26;95.69;99272.84;4977519;28;45462;-68
2022/11/23 07:11:44;;;;;;;;;7.75;7.75;;;;;9.37;95.87;99286.16;4977077;28;45569;-69
2022/11/23 07:14:10;;;;;;;;;5.00;4.25;;;;;9.49;95.57;99311.00;4979592;28;45510;-69
2022/11/23 07:16:36;;;;;;;;;6.00;6.00;;;;;9.51;95.15;99313.53;4995737;28;45497;-68
2022/11/23 07:19:01;;;;;;;;;5.25;5.25;;;;;9.50;95.08;99306.50;4996689;28;45363;-68
2022/11/23 07:21:27;;;;;;;;;4.25;4.00;;;;;9.61;94.94;99333.16;4996661;28;45312;-69
2022/11/23 07:23:52;;;;;;;;;7.50;6.75;;;;;9.55;94.25;99313.16;4996815;28;45344;-68
2022/11/23 07:26:17;;;;;;;;;4.50;4.50;;;;;9.53;94.75;99308.94;4997144;28;45470;-68
2022/11/23 07:28:43;;;;;;;;;6.25;6.25;;;;;9.60;94.25;99318.16;4997213;28;46241;-69
2022/11/23 07:31:08;;;;;;;;;7.75;5.00;;;;;9.51;93.95;99316.19;4997354;28;45419;-69
2022/11/23 07:33:33;;;;;;;;;10.00;10.00;;;;;8.96;94.24;99226.38;4997202;28;45945;-69
2022/11/23 07:36:01;;;;;;;;;5.50;4.00;;;;;9.61;93.71;99330.50;4996600;28;45510;-68
2022/11/23 07:38:27;;;;;;;;;6.00;6.00;;;;;9.70;93.74;99336.91;4996823;28;45658;-68
2022/11/23 07:40:52;;;;;;;;;5.00;5.00;;;;;9.65;93.72;99326.63;4996342;28;45418;-68
2022/11/23 07:43:18;;;;;;;;;5.00;4.25;;;;;9.69;92.77;99322.75;4996848;28;45502;-68
2022/11/23 07:45:43;;;;;;;;;3.75;3.25;;;;;9.76;92.80;99331.94;4996653;28;45343;-68
2022/11/23 07:48:09;;;;;;;;;9.00;5.25;;;;;9.84;92.04;99330.47;4978709;28;46698;-69
2022/11/23 07:50:36;;;;;;;;;7.00;5.00;;;;;9.84;92.20;99338.47;4995096;28;45610;-70
2022/11/23 07:53:03;;;;;;;;;5.25;5.25;;;;;9.85;92.29;99337.50;4996224;28;45399;-69
2022/11/23 07:55:29;;;;;;;;;3.00;3.00;;;;;9.78;92.89;99318.50;4996360;28;45339;-69
2022/11/23 07:57:55;;;;;;;;;6.75;5.00;;;;;9.94;92.41;99334.97;4978766;28;46648;-68
2022/11/23 08:00:26;;;;;;;;;5.75;5.00;;;;;9.89;91.63;99317.66;4996223;28;45293;-68
2022/11/23 08:02:51;;;;;;;;;4.00;2.00;;;;;9.85;91.53;99317.06;4996680;28;45462;-69
2022/11/23 08:05:17;;;;;;;;;7.75;5.00;;;;;9.97;92.83;99341.03;4995544;28;45360;-67
2022/11/23 08:07:43;;;;;;;;;3.25;3.00;;;;;9.91;93.22;99326.38;4996222;28;46802;-69
2022/11/23 08:10:10;;;;;;;;;3.75;3.75;;;;;9.85;93.49;99310.88;4996110;28;45465;-69
2022/11/23 08:12:35;;;;;;;;;3.75;3.75;;;;;10.02;93.85;99331.69;4996419;28;45448;-70
2022/11/23 08:15:01;;;;;;;;;4.25;4.25;;;;;9.86;93.35;99315.25;4994062;28;45446;-67
2022/11/23 08:17:26;;;;;;;;;4.00;2.00;;;;;9.92;93.65;99328.94;4994028;28;47826;-68
2022/11/23 08:19:51;;;;;;;;;3.50;3.50;;;;;9.85;93.89;99321.53;4978088;28;45405;-69
2022/11/23 08:22:17;;;;;;;;;3.25;3.25;;;;;9.82;94.08;99324.44;4996339;28;45371;-68
2022/11/23 08:24:42;;;;;;;;;4.00;3.00;;;;;9.48;94.31;99271.19;4996274;28;45399;-69
2022/11/23 08:27:08;;;;;;;;;2.00;2.00;;;;;9.73;94.25;99310.88;4995846;28;45482;-69
2022/11/23 08:29:33;;;;;;;;;2.75;2.75;;;;;9.79;94.32;99306.91;4996136;28;45814;-67
2022/11/23 08:31:58;;;;;;;;;4.50;3.25;;;;;9.73;94.01;99286.06;4978431;28;45431;-68
2022/11/23 08:34:24;;;;;;;;;4.50;3.00;;;;;9.77;93.93;99288.38;4995858;28;45435;-68
2022/11/23 08:36:49;;;;;;;;;3.00;3.00;;;;;9.82;93.97;99282.66;4996070;28;45435;-68
2022/11/23 08:39:16;;;;;;;;;3.25;3.25;;;;;9.79;94.43;99264.28;4995921;28;45639;-68
2022/11/23 08:41:41;;;;;;;;;0.00;0.00;;;;;9.94;93.19;99268.38;4996020;28;45512;-68
2022/11/23 08:44:09;;;;;;;;;3.00;3.00;;;;;9.71;92.99;99229.44;4995760;28;45492;-68
2022/11/23 08:46:35;;;;;;;;;3.00;2.00;;;;;9.92;93.67;99248.19;4995830;28;46639;-68
2022/11/23 08:49:00;;;;;;;;;4.25;4.25;;;;;9.88;93.46;99236.06;4977907;28;45400;-68
2022/11/23 08:51:25;;;;;;;;;3.00;3.00;;;;;9.77;93.53;99219.13;4995973;28;45379;-69
2022/11/23 08:53:51;;;;;;;;;3.00;3.00;;;;;9.74;93.43;99224.72;4995589;28;45502;-68
2022/11/23 08:56:17;;;;;;;;;4.00;3.00;;;;;9.80;93.13;99235.81;4995681;28;45462;-68
2022/11/23 08:58:43;;;;;;;;;1.00;1.00;;;;;9.74;93.10;99234.50;4995515;28;45438;-68
2022/11/23 09:01:10;;;;;;;;;1.75;0.50;;;;;9.70;92.73;99231.22;4977937;28;45532;-68
2022/11/23 09:03:37;;;;;;;;;0.75;0.75;;;;;9.80;92.80;99225.16;4994935;28;45590;-68
2022/11/23 09:06:02;;;;;;;;;1.00;1.00;;;;;9.77;92.57;99232.44;4995085;28;47279;-68
2022/11/23 09:08:28;;;;;;;;;1.50;1.50;;;;;9.84;92.64;99235.47;4995202;28;45434;-68
2022/11/23 09:10:54;;;;;;;;;4.25;3.00;;;;;9.09;93.75;99110.03;4995410;28;45296;-69
2022/11/23 09:13:19;;;;;;;;;4.00;2.00;;;;;9.51;95.16;99183.09;4995251;28;45292;-69
2022/11/23 09:15:45;;;;;;;;;2.00;2.00;;;;;9.74;95.63;99223.84;4995446;28;46435;-69
2022/11/23 09:18:10;;;;;;;;;3.25;2.50;;;;;9.32;96.71;99155.28;4995167;28;45371;-69
2022/11/23 09:20:35;;;;;;;;;2.00;2.00;;;;;9.68;97.08;99214.53;4994279;28;45430;-70
2022/11/23 09:23:01;;;;;;;;;2.00;2.00;;;;;9.71;96.66;99230.25;4995576;28;45761;-68
2022/11/23 09:25:27;;;;;;;;;4.00;4.00;;;;;9.72;99.85;99231.13;4995037;28;45308;-69
2022/11/23 09:27:57;;;;;;;;;2.75;2.25;;;;;9.65;100.00;99216.59;4995234;28;45435;-69
2022/11/23 09:30:23;;;;;;;;;3.50;3.00;;;;;9.61;100.00;99218.69;4995381;28;45290;-68
2022/11/23 09:32:48;;;;;;;;;3.75;3.75;;;;;9.56;100.00;99211.03;4994989;28;45485;-69
2022/11/23 09:35:13;;;;;;;;;3.00;2.25;;;;;9.63;100.00;99222.03;4977343;28;47846;-69
2022/11/23 09:37:39;;;;;;;;;2.50;2.50;;;;;9.41;100.00;99185.66;4995023;28;45394;-69
2022/11/23 09:40:04;;;;;;;;;3.75;2.50;;;;;9.77;100.00;99245.75;4977707;28;45443;-68
2022/11/23 09:43:01;;;;;;;;;3.25;3.25;;;;;9.80;100.00;99235.81;4995057;28;45401;-69
2022/11/23 09:45:49;;;;;;;;;5.00;2.50;;;;;9.73;100.00;99239.00;4994916;28;45589;-70
2022/11/23 09:48:36;;;;;;;;;3.00;3.00;;;;;9.65;100.00;99228.13;4994792;28;45401;-70
2022/11/23 09:51:16;;;;;;;;;3.00;3.00;;;;;9.45;100.00;99180.91;4977091;28;45357;-70
2022/11/23 09:53:44;;;;;;;;;3.00;3.00;;;;;9.69;100.00;99212.72;4994837;28;45446;-69
2022/11/23 09:56:33;;;;;;;;;2.00;2.00;;;;;9.73;100.00;99228.34;4994904;28;47200;-69
2022/11/23 09:59:04;;;;;;;;;3.25;2.25;;;;;9.72;100.00;99226.63;4994920;28;45430;-69
2022/11/23 10:01:30;;;;;;;;;3.00;3.00;;;;;9.65;100.00;99209.47;4994428;28;45434;-69
2022/11/23 10:03:56;;;;;;;;;2.75;2.25;;;;;9.50;100.00;99181.41;4994636;28;45485;-69
2022/11/23 10:06:28;;;;;;;;;5.25;3.00;;;;;9.69;100.00;99231.34;4994626;28;46224;-71
2022/11/23 10:09:16;;;;;;;;;3.00;3.00;;;;;9.59;100.00;99224.09;4994677;28;45383;-71
2022/11/23 10:12:06;;;;;;;;;3.00;3.00;;;;;9.56;100.00;99231.50;4994641;28;45477;-72
2022/11/23 10:15:04;;;;;;;;;4.50;4.50;;;;;9.54;100.00;99238.75;4994478;28;45493;-71
2022/11/23 10:17:59;;;;;;;;;3.00;3.00;;;;;9.56;100.00;99224.34;4895340;29;46227;-71
2022/11/23 10:20:28;;;;;;;;;2.50;2.50;;;;;9.56;100.00;99231.50;4895099;29;45577;-70
2022/11/23 10:22:57;;;;;;;;;3.75;3.00;;;;;9.52;100.00;99224.72;4895466;29;45436;-70
2022/11/23 10:25:24;;;;;;;;;4.25;3.00;;;;;9.51;100.00;99223.03;4895032;29;45525;-71
2022/11/23 10:27:55;;;;;;;;;4.25;3.25;;;;;9.17;100.00;99175.13;4879229;29;47969;-71
2022/11/23 10:30:21;;;;;;;;;3.00;3.00;;;;;9.31;100.00;99196.16;4895239;29;45459;-72
2022/11/23 10:32:53;;;;;;;;;3.25;3.25;;;;;9.65;100.00;99267.19;4895500;29;45590;-71
2022/11/23 10:35:28;;;;;;;;;5.00;3.75;;;;;9.65;100.00;99267.19;4895247;29;45442;-70
2022/11/23 10:38:08;;;;;;;;;4.00;4.00;;;;;9.58;100.00;99272.13;4894889;29;46336;-70
2022/11/23 10:40:36;;;;;;;;;5.25;4.25;;;;;9.63;100.00;99267.31;4894923;29;45544;-70
2022/11/23 10:43:14;;;;;;;;;2.00;2.00;;;;;9.46;100.00;99233.19;4895305;29;45417;-72
2022/11/23 10:45:40;;;;;;;;;3.00;2.00;;;;;9.41;100.00;99237.06;4894716;29;45530;-70
2022/11/23 10:48:05;;;;;;;;;2.00;1.00;;;;;9.57;100.00;99265.97;4895021;29;46209;-71
2022/11/23 10:50:36;;;;;;;;;2.00;2.00;;;;;9.63;100.00;99261.16;4894365;29;45442;-70
2022/11/23 10:53:22;;;;;;;;;3.00;1.00;;;;;9.70;100.00;99279.16;4941374;28;45581;-69
2022/11/23 10:55:52;;;;;;;;;2.50;2.00;;;;;9.80;100.00;99281.97;4993966;28;45545;-70
2022/11/23 10:58:25;;;;;;;;;2.00;2.00;;;;;9.88;100.00;99273.34;4993589;28;46458;-71
2022/11/23 11:01:05;;;;;;;;;2.50;2.00;;;;;9.86;100.00;99267.31;4993783;28;45506;-69
2022/11/23 11:03:33;;;;;;;;;0.00;0.00;;;;;9.83;100.00;99259.56;4975567;28;45723;-69
2022/11/23 11:05:59;;;;;;;;;1.75;1.75;;;;;9.65;100.00;99225.44;4993926;28;45776;-69
2022/11/23 11:08:30;;;;;;;;;4.00;1.50;;;;;9.99;100.00;99273.34;4975825;28;48174;-70
2022/11/23 11:11:07;;;;;;;;;1.00;1.00;;;;;10.06;100.00;99269.22;4993991;28;45518;-70
2022/11/23 11:13:44;;;;;;;;;1.00;1.00;;;;;10.10;100.00;99278.66;4993087;28;45439;-70
2022/11/23 11:16:55;;;;;;;;;1.00;1.00;;;;;10.15;100.00;99290.75;4976076;28;45508;-70
2022/11/23 11:19:20;;;;;;;;;1.75;1.75;;;;;10.20;100.00;99288.56;4894530;29;45811;-71
2022/11/23 11:21:46;;;;;;;;;0.50;0.50;;;;;10.16;100.00;99279.13;4894812;29;45383;-70
2022/11/23 11:24:19;;;;;;;;;1.75;1.75;;;;;10.29;100.00;99306.47;4894856;29;45347;-71
2022/11/23 11:26:51;;;;;;;;;1.00;1.00;;;;;10.15;100.00;99274.75;4894730;29;45427;-70
2022/11/23 11:29:43;;;;;;;;;4.00;4.00;;;;;10.36;100.00;99307.69;4909968;28;45711;-70
2022/11/23 11:32:36;;;;;;;;;3.25;2.25;;;;;10.39;100.00;99314.59;4913485;28;45473;-69
2022/11/23 11:35:31;;;;;;;;;3.00;3.00;;;;;10.38;100.00;99313.75;4913597;28;45527;-69
2022/11/23 11:38:01;;;;;;;;;7.00;7.00;;;;;10.43;100.00;99324.91;4911765;28;45497;-70
2022/11/23 11:40:36;;;;;;;;;2.00;2.00;;;;;10.50;100.00;99322.59;4913404;28;45485;-69
2022/11/23 11:43:08;;;;;;;;;3.00;0.75;;;;;10.57;100.00;99320.28;4913116;28;45781;-69